createdAt,value
2023-05-03T00:01:44.032Z,70.50
2023-05-03T00:04:11.429Z,70.50
2023-05-03T00:06:38.636Z,70.50
2023-05-03T00:09:05.670Z,70.50
2023-05-03T00:11:33.806Z,70.40
2023-05-03T00:14:01.032Z,70.40
2023-05-03T00:16:28.113Z,70.40
2023-05-03T00:18:55.217Z,70.40
2023-05-03T00:21:22.241Z,70.50
2023-05-03T00:23:49.196Z,70.50
2023-05-03T00:26:16.156Z,70.50
2023-05-03T00:28:43.307Z,70.50
2023-05-03T00:31:11.341Z,70.60
2023-05-03T00:33:39.138Z,70.60
2023-05-03T00:36:13.932Z,70.70
2023-05-03T00:38:42.475Z,70.80
2023-05-03T00:41:11.018Z,70.80
2023-05-03T00:43:38.225Z,70.90
2023-05-03T00:46:16.930Z,70.90
2023-05-03T00:48:48.786Z,70.80
2023-05-03T00:51:16.813Z,70.80
2023-05-03T00:53:43.886Z,70.70
2023-05-03T00:56:12.116Z,70.80
2023-05-03T00:58:40.588Z,70.80
2023-05-03T01:01:08.893Z,70.90
2023-05-03T01:03:39.785Z,70.90
2023-05-03T01:06:21.993Z,70.90
2023-05-03T01:09:17.548Z,71.00
2023-05-03T01:11:53.468Z,71.10
2023-05-03T01:14:34.165Z,71.20
2023-05-03T01:17:13.644Z,71.30
2023-05-03T01:19:49.018Z,71.40
2023-05-03T01:22:44.263Z,71.30
2023-05-03T01:25:15.830Z,71.30
2023-05-03T01:27:43.433Z,71.30
2023-05-03T01:30:12.780Z,71.30
2023-05-03T01:33:13.647Z,71.30
2023-05-03T01:35:45.706Z,71.40
2023-05-03T01:38:14.022Z,71.50
2023-05-03T01:40:47.381Z,71.60
2023-05-03T01:43:16.892Z,71.60
2023-05-03T01:45:44.565Z,71.80
2023-05-03T01:48:16.720Z,71.80
2023-05-03T01:50:44.413Z,71.80
2023-05-03T01:53:11.820Z,71.90
2023-05-03T01:55:39.128Z,71.90
2023-05-03T01:58:06.330Z,71.90
2023-05-03T02:00:33.577Z,71.90
2023-05-03T02:03:00.852Z,72.00
2023-05-03T02:05:28.130Z,72.10
2023-05-03T02:07:55.096Z,72.20
2023-05-03T02:10:22.206Z,72.20
2023-05-03T02:12:49.185Z,72.20
2023-05-03T02:15:16.874Z,72.20
2023-05-03T02:17:44.136Z,72.30
2023-05-03T02:20:12.676Z,72.40
2023-05-03T02:22:39.773Z,72.40
2023-05-03T02:25:07.697Z,72.40
2023-05-03T02:27:34.709Z,72.40
2023-05-03T02:30:02.222Z,72.40
2023-05-03T02:32:36.494Z,72.40
2023-05-03T02:35:03.847Z,72.50
2023-05-03T02:37:30.953Z,72.60
2023-05-03T02:39:58.143Z,72.50
2023-05-03T02:42:25.151Z,72.40
2023-05-03T02:44:52.158Z,72.30
2023-05-03T02:47:19.177Z,72.20
2023-05-03T02:49:46.175Z,72.20
2023-05-03T02:52:13.509Z,72.20
2023-05-03T02:54:40.636Z,72.20
2023-05-03T02:57:12.170Z,72.20
2023-05-03T02:59:39.214Z,72.30
2023-05-03T03:02:06.417Z,72.40
2023-05-03T03:04:35.066Z,72.40
2023-05-03T03:07:02.094Z,72.50
2023-05-03T03:09:30.093Z,72.50
2023-05-03T03:11:57.214Z,72.60
2023-05-03T03:14:24.264Z,72.60
2023-05-03T03:16:52.154Z,72.70
2023-05-03T03:19:19.196Z,72.70
2023-05-03T03:21:46.198Z,72.70
2023-05-03T03:24:13.448Z,72.70
2023-05-03T03:26:40.886Z,72.80
2023-05-03T03:29:09.900Z,72.90
2023-05-03T03:31:40.890Z,72.90
2023-05-03T03:34:08.294Z,73.00
2023-05-03T03:39:05.093Z,73.10
2023-05-03T03:41:34.398Z,73.20
2023-05-03T03:44:01.918Z,73.30
2023-05-03T03:46:29.580Z,73.40
2023-05-03T03:48:58.802Z,73.40
2023-05-03T03:51:28.167Z,73.40
2023-05-03T03:53:55.475Z,73.40
2023-05-03T03:56:25.418Z,73.30
2023-05-03T03:58:53.754Z,73.30
2023-05-03T04:01:21.189Z,73.40
2023-05-03T04:03:48.427Z,73.40
2023-05-03T04:06:15.827Z,73.50
2023-05-03T04:08:42.927Z,73.50
2023-05-03T04:11:12.542Z,73.60
2023-05-03T04:13:45.000Z,73.50
2023-05-03T04:16:12.205Z,73.50
2023-05-03T04:18:39.624Z,73.60
2023-05-03T04:21:08.711Z,73.70
2023-05-03T04:23:35.952Z,73.70
2023-05-03T04:26:05.628Z,73.80
2023-05-03T04:28:34.970Z,73.80
2023-05-03T04:31:02.094Z,73.80
2023-05-03T04:33:31.286Z,73.90
2023-05-03T04:36:02.789Z,73.90
2023-05-03T04:38:30.043Z,73.90
2023-05-03T04:40:59.538Z,73.90
2023-05-03T04:43:26.874Z,73.90
2023-05-03T04:45:55.391Z,73.90
2023-05-03T04:48:25.173Z,73.90
2023-05-03T04:50:52.467Z,74.00
2023-05-03T04:53:21.336Z,74.00
2023-05-03T04:56:00.422Z,74.10
2023-05-03T04:58:28.345Z,74.20
2023-05-03T05:00:55.755Z,74.40
2023-05-03T05:03:28.753Z,74.50
2023-05-03T05:05:55.804Z,74.70
2023-05-03T05:08:23.597Z,74.80
2023-05-03T05:10:56.100Z,74.90
2023-05-03T05:13:27.723Z,74.90
2023-05-03T05:15:54.814Z,75.10
2023-05-03T05:18:22.190Z,75.20
2023-05-03T05:20:50.149Z,75.30
2023-05-03T05:23:19.099Z,75.40
2023-05-03T05:25:47.753Z,75.40
2023-05-03T05:28:15.041Z,75.40
2023-05-03T05:30:42.446Z,75.50
2023-05-03T05:33:09.724Z,75.60
2023-05-03T05:35:37.201Z,75.60
2023-05-03T05:38:05.154Z,75.70
2023-05-03T05:40:33.584Z,75.80
2023-05-03T05:43:01.334Z,75.90
2023-05-03T05:45:31.316Z,76.00
2023-05-03T05:47:58.826Z,76.10
2023-05-03T05:50:26.488Z,76.10
2023-05-03T05:52:58.728Z,76.10
2023-05-03T05:55:29.475Z,76.20
2023-05-03T05:57:57.209Z,76.30
2023-05-03T06:00:31.235Z,76.30
2023-05-03T06:02:58.333Z,76.40
2023-05-03T06:05:25.542Z,76.40
2023-05-03T06:07:53.934Z,76.40
2023-05-03T06:10:21.314Z,76.40
2023-05-03T06:12:51.724Z,76.40
2023-05-03T06:15:22.930Z,76.40
2023-05-03T06:17:50.223Z,76.40
2023-05-03T06:20:18.252Z,76.40
2023-05-03T06:22:46.721Z,76.40
2023-05-03T06:25:16.202Z,76.40
2023-05-03T06:27:47.200Z,76.40
2023-05-03T06:30:15.107Z,76.50
2023-05-03T06:32:43.502Z,76.50
2023-05-03T06:35:11.477Z,76.40
2023-05-03T06:37:40.176Z,76.30
2023-05-03T06:40:07.965Z,76.20
2023-05-03T06:42:36.937Z,76.10
2023-05-03T06:45:08.690Z,76.10
2023-05-03T06:47:40.285Z,76.00
2023-05-03T06:50:08.102Z,75.90
2023-05-03T06:52:35.129Z,76.00
2023-05-03T06:55:02.415Z,76.10
2023-05-03T06:57:29.328Z,76.10
2023-05-03T06:59:56.582Z,76.00
2023-05-03T07:02:23.678Z,75.90
2023-05-03T07:04:50.875Z,75.70
2023-05-03T07:07:17.969Z,75.60
2023-05-03T07:09:45.255Z,75.30
2023-05-03T07:12:12.261Z,75.00
2023-05-03T07:14:40.512Z,74.90
2023-05-03T07:17:07.801Z,74.80
2023-05-03T07:19:35.100Z,74.70
2023-05-03T07:22:03.432Z,74.60
2023-05-03T07:24:32.115Z,74.30
2023-05-03T07:26:59.288Z,74.20
2023-05-03T07:29:27.471Z,74.10
2023-05-03T07:31:54.927Z,74.20
2023-05-03T07:34:22.128Z,74.20
2023-05-03T07:36:49.114Z,74.20
2023-05-03T07:39:17.412Z,74.30
2023-05-03T07:41:44.925Z,74.30
2023-05-03T07:44:11.886Z,74.00
2023-05-03T07:46:38.869Z,73.60
2023-05-03T07:49:06.322Z,73.10
2023-05-03T07:51:37.405Z,72.80
2023-05-03T07:54:04.948Z,72.60
2023-05-03T07:56:32.123Z,72.30
2023-05-03T07:59:08.535Z,72.50
2023-05-03T08:01:37.763Z,71.90
2023-05-03T08:04:05.251Z,71.80
2023-05-03T08:06:35.514Z,71.80
2023-05-03T08:09:04.732Z,71.20
2023-05-03T08:11:31.910Z,70.50
2023-05-03T08:13:58.905Z,70.30
2023-05-03T08:16:26.292Z,69.90
2023-05-03T08:18:53.444Z,69.60
2023-05-03T08:21:24.761Z,69.90
2023-05-03T08:23:52.093Z,70.00
2023-05-03T08:26:19.491Z,69.70
2023-05-03T08:28:46.521Z,69.60
2023-05-03T08:31:13.674Z,69.60
2023-05-03T08:33:40.704Z,69.50
2023-05-03T08:36:07.937Z,69.00
2023-05-03T08:38:36.608Z,68.20
2023-05-03T08:41:30.662Z,67.60
2023-05-03T08:43:59.433Z,65.90
2023-05-03T08:46:28.524Z,64.40
2023-05-03T08:48:56.367Z,64.70
2023-05-03T08:51:25.008Z,64.70
2023-05-03T08:53:52.114Z,64.30
2023-05-03T08:56:41.403Z,64.50
2023-05-03T08:59:09.296Z,64.20
2023-05-03T09:01:40.868Z,63.50
2023-05-03T09:04:09.271Z,63.00
2023-05-03T09:06:36.906Z,61.40
2023-05-03T09:09:07.546Z,61.10
2023-05-03T09:11:36.752Z,61.20
2023-05-03T09:14:12.695Z,61.20
2023-05-03T09:16:41.352Z,60.70
2023-05-03T09:19:12.669Z,59.80
2023-05-03T09:21:44.606Z,57.50
2023-05-03T09:24:19.245Z,58.60
2023-05-03T09:26:48.239Z,58.70
2023-05-03T09:29:30.152Z,59.20
2023-05-03T09:32:05.742Z,55.90
2023-05-03T09:34:33.927Z,56.20
2023-05-03T09:37:01.483Z,56.10
2023-05-03T09:39:28.692Z,56.20
2023-05-03T09:41:55.868Z,54.00
2023-05-03T09:44:42.675Z,54.10
2023-05-03T09:47:10.591Z,54.80
2023-05-03T09:49:38.683Z,55.60
2023-05-03T09:52:07.134Z,54.60
2023-05-03T09:54:37.659Z,54.60
2023-05-03T09:57:05.923Z,54.80
2023-05-03T09:59:33.911Z,54.60
2023-05-03T10:02:04.349Z,54.00
2023-05-03T10:04:47.678Z,54.30
2023-05-03T10:07:17.932Z,54.70
2023-05-03T10:09:48.085Z,54.20
2023-05-03T10:12:18.548Z,53.40
2023-05-03T10:14:47.073Z,53.20
2023-05-03T10:17:35.841Z,52.20
2023-05-03T10:20:26.771Z,51.90
2023-05-03T10:23:09.693Z,52.40
2023-05-03T10:25:39.559Z,52.70
2023-05-03T10:28:08.719Z,53.40
2023-05-03T10:30:37.679Z,53.40
2023-05-03T10:33:13.370Z,53.20
2023-05-03T10:35:54.599Z,53.00
2023-05-03T10:38:26.302Z,53.00
2023-05-03T10:40:57.109Z,52.40
2023-05-03T10:43:30.385Z,53.30
2023-05-03T10:46:01.623Z,52.10
2023-05-03T10:48:29.826Z,52.10
2023-05-03T10:51:17.354Z,52.00
2023-05-03T10:53:45.008Z,51.60
2023-05-03T10:56:13.978Z,52.40
2023-05-03T10:58:45.724Z,52.60
2023-05-03T11:01:17.085Z,52.40
2023-05-03T11:04:00.009Z,52.10
2023-05-03T11:06:36.555Z,51.40
2023-05-03T11:09:06.600Z,49.90
2023-05-03T11:11:35.363Z,50.30
2023-05-03T11:14:03.612Z,51.60
2023-05-03T11:16:31.188Z,51.80
2023-05-03T11:18:59.938Z,50.70
2023-05-03T11:21:27.668Z,49.40
2023-05-03T11:23:54.851Z,50.00
2023-05-03T11:26:26.144Z,50.30
2023-05-03T11:28:54.524Z,49.40
2023-05-03T11:31:22.706Z,49.40
2023-05-03T11:33:51.137Z,49.10
2023-05-03T11:36:18.219Z,48.10
2023-05-03T11:38:45.784Z,48.90
2023-05-03T11:41:14.980Z,49.40
2023-05-03T11:43:55.091Z,48.80
2023-05-03T11:46:29.775Z,47.70
2023-05-03T11:48:57.077Z,47.50
2023-05-03T11:51:25.531Z,48.00
2023-05-03T11:53:52.582Z,48.30
2023-05-03T11:56:21.057Z,47.90
2023-05-03T11:58:58.554Z,48.30
2023-05-03T12:01:27.397Z,48.00
2023-05-03T12:04:02.423Z,48.20
2023-05-03T12:06:34.033Z,48.00
2023-05-03T12:09:04.114Z,46.80
2023-05-03T12:11:40.858Z,46.20
2023-05-03T12:14:08.143Z,46.00
2023-05-03T12:16:53.286Z,45.10
2023-05-03T12:19:31.324Z,45.00
2023-05-03T12:22:22.593Z,45.20
2023-05-03T12:24:49.388Z,45.60
2023-05-03T12:27:19.089Z,45.60
2023-05-03T12:29:47.538Z,45.20
2023-05-03T12:32:15.150Z,44.30
2023-05-03T12:34:42.960Z,45.00
2023-05-03T12:37:12.336Z,44.60
2023-05-03T12:39:40.445Z,44.90
2023-05-03T12:42:09.246Z,44.60
2023-05-03T12:44:41.704Z,44.60
2023-05-03T12:47:11.111Z,44.30
2023-05-03T12:49:39.762Z,44.10
2023-05-03T12:54:41.509Z,44.20
2023-05-03T12:57:15.614Z,44.00
2023-05-03T12:59:45.268Z,44.50
2023-05-03T13:03:19.698Z,44.70
2023-05-03T13:05:11.959Z,44.80
2023-05-03T13:07:55.688Z,45.40
2023-05-03T13:10:23.380Z,43.30
2023-05-03T13:12:50.320Z,43.30
2023-05-03T13:15:17.403Z,43.00
2023-05-03T13:17:46.945Z,42.80
2023-05-03T13:20:14.588Z,43.40
2023-05-03T13:22:41.537Z,42.30
2023-05-03T13:25:08.852Z,42.20
2023-05-03T13:27:35.775Z,42.50
2023-05-03T13:30:04.938Z,42.70
2023-05-03T13:32:33.519Z,42.80
2023-05-03T13:35:00.645Z,43.50
2023-05-03T13:37:27.578Z,42.20
2023-05-03T13:39:55.928Z,42.30
2023-05-03T13:42:22.958Z,42.50
2023-05-03T13:44:49.971Z,42.50
2023-05-03T13:47:17.006Z,41.00
2023-05-03T13:49:44.013Z,41.70
2023-05-03T13:52:11.801Z,41.90
2023-05-03T13:54:39.013Z,41.70
2023-05-03T13:57:06.181Z,41.20
2023-05-03T13:59:33.149Z,41.50
2023-05-03T14:02:00.972Z,41.60
2023-05-03T14:04:28.450Z,41.80
2023-05-03T14:06:55.553Z,41.40
2023-05-03T14:09:22.549Z,40.30
2023-05-03T14:11:49.508Z,40.40
2023-05-03T14:14:16.539Z,40.70
2023-05-03T14:16:44.402Z,40.50
2023-05-03T14:19:11.968Z,40.50
2023-05-03T14:21:39.290Z,40.90
2023-05-03T14:24:06.881Z,41.70
2023-05-03T14:26:37.046Z,41.70
2023-05-03T14:29:05.788Z,41.00
2023-05-03T14:31:33.954Z,40.70
2023-05-03T14:34:01.272Z,41.10
2023-05-03T14:36:36.044Z,41.20
2023-05-03T14:39:04.222Z,40.30
2023-05-03T14:41:33.214Z,41.00
2023-05-03T14:44:01.086Z,40.70
2023-05-03T14:46:28.093Z,40.60
2023-05-03T14:48:55.701Z,41.30
2023-05-03T14:51:23.927Z,40.50
2023-05-03T14:53:51.468Z,40.10
2023-05-03T14:56:18.565Z,38.60
2023-05-03T14:58:45.658Z,38.90
2023-05-03T15:01:22.225Z,39.20
2023-05-03T15:03:50.021Z,39.50
2023-05-03T15:06:25.120Z,40.20
2023-05-03T15:08:52.499Z,40.00
2023-05-03T15:11:19.442Z,40.30
2023-05-03T15:13:47.250Z,40.50
2023-05-03T15:16:14.381Z,40.10
2023-05-03T15:18:43.607Z,40.10
2023-05-03T15:21:12.785Z,40.10
2023-05-03T15:23:39.820Z,40.50
2023-05-03T15:26:07.142Z,40.90
2023-05-03T15:28:34.133Z,41.10
2023-05-03T15:31:01.971Z,41.10
2023-05-03T15:33:29.036Z,40.30
2023-05-03T15:35:56.487Z,40.70
2023-05-03T15:38:23.682Z,39.90
2023-05-03T15:40:50.707Z,39.90
2023-05-03T15:43:17.895Z,40.30
2023-05-03T15:45:44.914Z,40.00
2023-05-03T15:48:11.983Z,40.10
2023-05-03T15:50:38.983Z,40.70
2023-05-03T15:53:05.994Z,41.20
2023-05-03T15:55:33.438Z,41.30
2023-05-03T15:58:00.461Z,41.30
2023-05-03T16:00:27.844Z,41.60
2023-05-03T16:02:54.984Z,41.70
2023-05-03T16:05:23.114Z,41.30
2023-05-03T16:07:51.240Z,41.70
2023-05-03T16:10:18.217Z,41.40
2023-05-03T16:12:45.227Z,41.80
2023-05-03T16:15:12.649Z,41.70
2023-05-03T16:17:39.744Z,41.10
2023-05-03T16:20:09.137Z,41.30
2023-05-03T16:22:39.162Z,41.30
2023-05-03T16:25:12.909Z,42.00
2023-05-03T16:27:42.885Z,41.90
2023-05-03T16:30:10.467Z,42.10
2023-05-03T16:32:37.538Z,42.30
2023-05-03T16:35:04.924Z,42.00
2023-05-03T16:37:32.793Z,41.70
2023-05-03T16:40:05.810Z,41.70
2023-05-03T16:42:32.912Z,42.00
2023-05-03T16:44:59.874Z,41.70
2023-05-03T16:47:27.422Z,41.50
2023-05-03T16:49:54.422Z,41.90
2023-05-03T16:52:21.391Z,42.30
2023-05-03T16:54:48.392Z,42.60
2023-05-03T16:57:15.389Z,42.30
2023-05-03T16:59:42.335Z,42.40
2023-05-03T17:02:09.371Z,42.60
2023-05-03T17:04:36.426Z,42.60
2023-05-03T17:07:03.365Z,43.10
2023-05-03T17:09:31.111Z,43.20
2023-05-03T17:11:58.812Z,43.60
2023-05-03T17:14:25.841Z,43.80
2023-05-03T17:16:53.250Z,43.30
2023-05-03T17:19:20.885Z,43.70
2023-05-03T17:21:47.838Z,44.40
2023-05-03T17:24:14.804Z,45.20
2023-05-03T17:26:41.898Z,45.50
2023-05-03T17:29:08.906Z,45.90
2023-05-03T17:31:36.044Z,46.10
2023-05-03T17:34:03.116Z,46.50
2023-05-03T17:36:30.258Z,46.80
2023-05-03T17:38:57.438Z,46.90
2023-05-03T17:41:24.486Z,46.70
2023-05-03T17:43:51.666Z,46.80
2023-05-03T17:46:20.410Z,47.00
2023-05-03T17:48:48.501Z,47.00
2023-05-03T17:51:15.754Z,47.20
2023-05-03T17:53:43.235Z,47.30
2023-05-03T17:56:15.074Z,47.50
2023-05-03T17:58:42.181Z,47.90
2023-05-03T18:01:10.874Z,47.90
2023-05-03T18:03:38.237Z,47.70
2023-05-03T18:06:08.616Z,47.70
2023-05-03T18:08:35.682Z,47.90
2023-05-03T18:11:02.715Z,48.20
2023-05-03T18:13:29.848Z,48.40
2023-05-03T18:15:56.903Z,48.50
2023-05-03T18:18:23.929Z,48.80
2023-05-03T18:21:00.889Z,48.90
2023-05-03T18:23:28.102Z,48.70
2023-05-03T18:25:55.101Z,48.80
2023-05-03T18:28:22.846Z,48.50
2023-05-03T18:30:52.837Z,48.50
2023-05-03T18:33:20.035Z,48.80
2023-05-03T18:35:53.549Z,49.00
2023-05-03T18:38:21.684Z,49.20
2023-05-03T18:40:49.606Z,49.20
2023-05-03T18:43:16.911Z,49.20
2023-05-03T18:45:44.151Z,49.50
2023-05-03T18:48:12.002Z,49.60
2023-05-03T18:50:39.719Z,49.70
2023-05-03T18:53:07.088Z,49.80
2023-05-03T18:55:34.105Z,49.90
2023-05-03T18:58:01.501Z,49.90
2023-05-03T19:00:28.493Z,50.10
2023-05-03T19:02:55.604Z,50.00
2023-05-03T19:05:22.607Z,50.10
2023-05-03T19:07:49.647Z,50.30
2023-05-03T19:10:17.497Z,50.40
2023-05-03T19:12:44.915Z,50.60
2023-05-03T19:15:12.390Z,50.60
2023-05-03T19:17:43.357Z,50.60
2023-05-03T19:20:12.084Z,50.70
2023-05-03T19:22:39.233Z,50.70
2023-05-03T19:25:07.104Z,50.80
2023-05-03T19:27:34.256Z,50.90
2023-05-03T19:30:01.473Z,51.00
2023-05-03T19:32:28.626Z,51.00
2023-05-03T19:34:55.828Z,51.20
2023-05-03T19:37:22.774Z,51.40
2023-05-03T19:39:49.776Z,51.50
2023-05-03T19:42:17.470Z,51.60
2023-05-03T19:44:44.424Z,51.90
2023-05-03T19:47:11.437Z,52.00
2023-05-03T19:49:38.481Z,52.10
2023-05-03T19:52:06.301Z,52.20
2023-05-03T19:54:33.523Z,52.60
2023-05-03T19:57:07.614Z,52.90
2023-05-03T19:59:35.375Z,52.90
2023-05-03T20:02:03.142Z,53.00
2023-05-03T20:04:30.633Z,53.00
2023-05-03T20:06:57.697Z,53.00
2023-05-03T20:09:24.732Z,53.10
2023-05-03T20:11:56.608Z,53.10
2023-05-03T20:14:23.587Z,53.30
2023-05-03T20:16:50.489Z,53.30
2023-05-03T20:19:17.771Z,53.40
2023-05-03T20:21:44.876Z,53.40
2023-05-03T20:24:11.935Z,53.60
2023-05-03T20:26:38.992Z,53.70
2023-05-03T20:29:06.057Z,53.80
2023-05-03T20:31:33.157Z,53.90
2023-05-03T20:34:00.699Z,54.00
2023-05-03T20:36:28.045Z,54.10
2023-05-03T20:38:55.628Z,54.20
2023-05-03T20:41:23.526Z,54.30
2023-05-03T20:43:53.990Z,54.40
2023-05-03T20:46:21.325Z,54.60
2023-05-03T20:48:48.378Z,54.70
2023-05-03T20:51:15.385Z,54.70
2023-05-03T20:53:42.645Z,54.80
2023-05-03T20:56:09.757Z,55.00
2023-05-03T20:58:36.898Z,55.10
2023-05-03T21:01:04.496Z,55.30
2023-05-03T21:03:31.997Z,55.40
2023-05-03T21:05:59.240Z,55.50
2023-05-03T21:08:26.572Z,55.60
2023-05-03T21:10:54.278Z,55.80
2023-05-03T21:13:21.337Z,55.90
2023-05-03T21:15:48.488Z,56.00
2023-05-03T21:18:15.961Z,56.10
2023-05-03T21:20:43.030Z,56.30
2023-05-03T21:23:10.104Z,56.40
2023-05-03T21:25:37.156Z,56.50
2023-05-03T21:28:04.281Z,56.70
2023-05-03T21:30:31.266Z,57.00
2023-05-03T21:32:58.358Z,57.20
2023-05-03T21:35:25.751Z,57.40
2023-05-03T21:37:52.851Z,57.70
2023-05-03T21:40:21.323Z,58.10
2023-05-03T21:42:51.311Z,58.40
2023-05-03T21:45:18.825Z,58.60
2023-05-03T21:47:46.392Z,58.80
2023-05-03T21:50:13.943Z,59.00
2023-05-03T21:52:41.184Z,59.20
2023-05-03T21:55:08.887Z,59.40
2023-05-03T21:57:36.801Z,59.60
2023-05-03T22:00:07.565Z,59.70
2023-05-03T22:02:35.558Z,59.90
2023-05-03T22:05:02.674Z,60.20
2023-05-03T22:07:29.668Z,60.40
2023-05-03T22:09:56.658Z,60.60
2023-05-03T22:12:24.778Z,60.70
2023-05-03T22:14:52.954Z,60.80
2023-05-03T22:17:20.308Z,61.00
2023-05-03T22:19:47.399Z,61.10
2023-05-03T22:22:14.460Z,61.30
2023-05-03T22:24:41.654Z,61.50
2023-05-03T22:27:08.698Z,61.80
2023-05-03T22:29:35.642Z,62.00
2023-05-03T22:32:03.034Z,62.10
2023-05-03T22:34:30.093Z,62.30
2023-05-03T22:36:57.127Z,62.50
2023-05-03T22:39:24.140Z,62.70
2023-05-03T22:41:51.203Z,62.80
2023-05-03T22:44:18.140Z,62.90
2023-05-03T22:46:45.352Z,63.00
2023-05-03T22:49:12.263Z,63.00
2023-05-03T22:51:39.313Z,63.10
2023-05-03T22:54:06.345Z,63.10
2023-05-03T22:56:33.406Z,63.20
2023-05-03T22:59:00.385Z,63.30
2023-05-03T23:01:27.885Z,63.40
2023-05-03T23:03:55.024Z,63.50
2023-05-03T23:06:22.073Z,63.80
2023-05-03T23:08:49.075Z,64.00
2023-05-03T23:11:16.202Z,64.20
2023-05-03T23:13:43.247Z,64.30
2023-05-03T23:16:10.520Z,64.50
2023-05-03T23:18:37.876Z,64.60
2023-05-03T23:21:04.907Z,64.70
2023-05-03T23:23:31.958Z,64.80
2023-05-03T23:25:59.019Z,64.90
2023-05-03T23:28:26.765Z,65.00
2023-05-03T23:30:54.226Z,65.10
2023-05-03T23:33:21.790Z,65.10
2023-05-03T23:35:49.253Z,65.20
2023-05-03T23:38:16.396Z,65.40
2023-05-03T23:40:43.444Z,65.60
2023-05-03T23:43:10.406Z,65.80
2023-05-03T23:45:37.421Z,65.90
2023-05-03T23:48:04.773Z,66.00
2023-05-03T23:50:32.092Z,66.10
2023-05-03T23:52:59.413Z,66.00
2023-05-03T23:55:26.409Z,66.10
2023-05-03T23:57:53.398Z,66.20
